Aérodrome :
LOGIN :

S'inscrire | Disclaimer

   EN    FR    IT 

 










Légende :    VFR   VFR Marginal   IFR   IFR Intensif   IFR Très Intensif
Visi : 
Plafond : 
>= 8 km
>= 3000ft
5 à 8 km
1000 à 3000 ft
1500m à 5 km
500 à 1000 ft
800 à 1500m
200 à 500 ft
< 800m
< 200 ft
Symboles :   Orages  Brouillard  Fortes neiges  Fortes précipitations  Vent > 20 kt
SIGMETs :   Divers  Orages  Givrage  Turbulence  Onde Orograph.  Cendres Volcan.






- Altitude de l'aérodrome : 545 ft
- Code IATA : PZY


LZPP - Piešťany

DERNIER METAR :
  • 231500Z 10007KT 9999 BKN046 22/14 Q1008

METARs EXPIRÉS :
  • 231430Z 10006KT 070V130 9999 SCT040 BKN070 21/15 Q1008
  • 231400Z 12011KT 9999 SCT040 BKN080 22/15 Q1008
  • 231330Z 13005KT 100V160 9999 SCT046 BKN070 23/15 Q1008
  • 231300Z 12008KT 090V150 9999 FEW040 22/15 Q1008
  • 231230Z 15013KT 9999 BKN030 23/14 Q1009

TAF TAF LZPP
Valide du 23 à 15h jusqu'au 24 à 00h UTC


231400Z 2315/2400 15012KT 9999 SCT045 BKN070
TEMPO 2315/2400 9999 SHRA FEW035TCU BKN045
PROB30
TEMPO 2315/2323 20015G25KT TSRA FEW020 SCT030CB BKN040



MET'MAP, la Météo Aéronautique d'un coup d'oeil ! - Copyright ORBIFLY Décembre 2007 - Disclaimer

ORBIFLY MET'MAP TEAM :

Programmation & Développement : Alexandra Zaïnal
Sur une idée originale de : Baudouin d'Aumeries
Assistance à la programmation : Marc-Olivier Méhu
Soutien technique & logistique : Manuel Goepfert

Contact : metmap@orbifly.com




SOURCES & CREDITS :

   NOAA